Time;durP1;ratioP1;P1;durP2;ratioP2;P2;SDS_P1;SDS_P2;PMS_P1;PMS_P2;Temp;Humidity;BMP_temperature;BMP_pressure;BME280_temperature;BME280_humidity;BME280_pressure;Samples;Min_cycle;Max_cycle;Signal;HPM_P1;HPM_P2
2024/01/07 00:00:48;;;;;;;21.2;12.75;;;;;;;4.3;79.55273;94416.6;;;;
2024/01/07 00:01:48;;;;;;;21.2;12.75;;;;;;;4.3;79.55273;94416.6;;;;
2024/01/07 00:02:49;;;;;;;21.2;12.75;;;;;;;4.3;79.55273;94416.6;;;;
2024/01/07 00:03:50;;;;;;;21.2;12.75;;;;;;;4.3;79.55273;94416.6;;;;
2024/01/07 00:04:51;;;;;;;21.2;12.75;;;;;;;4.3;79.55273;94416.6;;;;
2024/01/07 00:05:52;;;;;;;21.2;12.75;;;;;;;4.3;79.55273;94416.6;;;;
2024/01/07 00:06:52;;;;;;;21.2;12.75;;;;;;;4.3;79.55273;94416.6;;;;
2024/01/07 00:07:53;;;;;;;21.2;12.75;;;;;;;4.3;79.55273;94416.6;;;;
2024/01/07 00:08:53;;;;;;;21.45;13.25;;;;;;;4.29;79.69043;94416.19;;;;
2024/01/07 00:09:53;;;;;;;21.45;13.25;;;;;;;4.29;79.69043;94416.19;;;;
2024/01/07 00:10:54;;;;;;;21.45;13.25;;;;;;;4.29;79.69043;94416.19;;;;
2024/01/07 00:11:54;;;;;;;21.45;13.25;;;;;;;4.29;79.69043;94416.19;;;;
2024/01/07 00:12:55;;;;;;;21.45;13.25;;;;;;;4.29;79.69043;94416.19;;;;
2024/01/07 00:13:55;;;;;;;21.45;13.25;;;;;;;4.29;79.69043;94416.19;;;;
2024/01/07 00:14:56;;;;;;;21.45;13.25;;;;;;;4.29;79.69043;94416.19;;;;
2024/01/07 00:15:56;;;;;;;21.45;13.25;;;;;;;4.29;79.69043;94416.19;;;;
2024/01/07 00:16:57;;;;;;;21.45;13.25;;;;;;;4.29;79.69043;94416.19;;;;
2024/01/07 00:17:58;;;;;;;21.45;13.25;;;;;;;4.29;79.69043;94416.19;;;;
2024/01/07 00:18:58;;;;;;;21.3;12.9;;;;;;;4.3;79.71387;94414.76;;;;
2024/01/07 00:19:59;;;;;;;21.3;12.9;;;;;;;4.3;79.71387;94414.76;;;;
2024/01/07 00:20:59;;;;;;;21.3;12.9;;;;;;;4.3;79.71387;94414.76;;;;
2024/01/07 00:22:00;;;;;;;21.3;12.9;;;;;;;4.3;79.71387;94414.76;;;;
2024/01/07 00:23:01;;;;;;;21.3;12.9;;;;;;;4.3;79.71387;94414.76;;;;
2024/01/07 00:24:01;;;;;;;21.3;12.9;;;;;;;4.3;79.71387;94414.76;;;;
2024/01/07 00:25:01;;;;;;;21.3;12.9;;;;;;;4.3;79.71387;94414.76;;;;
2024/01/07 00:26:03;;;;;;;21.3;12.9;;;;;;;4.3;79.71387;94414.76;;;;
2024/01/07 00:27:04;;;;;;;21.3;12.9;;;;;;;4.3;79.71387;94414.76;;;;
2024/01/07 00:28:04;;;;;;;21.3;12.9;;;;;;;4.3;79.71387;94414.76;;;;
2024/01/07 00:29:05;;;;;;;21.3;12.9;;;;;;;4.3;79.71387;94414.76;;;;
2024/01/07 00:30:06;;;;;;;22.1;13.6;;;;;;;4.28;79.78418;94418.87;;;;
2024/01/07 00:31:08;;;;;;;22.1;13.6;;;;;;;4.28;79.78418;94418.87;;;;
2024/01/07 00:32:11;;;;;;;22.1;13.6;;;;;;;4.28;79.78418;94418.87;;;;
2024/01/07 00:33:11;;;;;;;22.1;13.6;;;;;;;4.28;79.78418;94418.87;;;;
2024/01/07 00:34:12;;;;;;;22.1;13.6;;;;;;;4.28;79.78418;94418.87;;;;
2024/01/07 00:35:12;;;;;;;22.1;13.6;;;;;;;4.28;79.78418;94418.87;;;;
2024/01/07 00:36:13;;;;;;;22.1;13.6;;;;;;;4.28;79.78418;94418.87;;;;
2024/01/07 00:37:13;;;;;;;22.1;13.6;;;;;;;4.28;79.78418;94418.87;;;;
2024/01/07 00:38:14;;;;;;;22.1;13.6;;;;;;;4.28;79.78418;94418.87;;;;
2024/01/07 00:39:14;;;;;;;22.1;13.6;;;;;;;4.28;79.78418;94418.87;;;;
2024/01/07 00:40:16;;;;;;;20.35;13.55;;;;;;;4.28;79.70996;94416.27;;;;
2024/01/07 00:41:16;;;;;;;20.35;13.55;;;;;;;4.28;79.70996;94416.27;;;;
2024/01/07 00:42:16;;;;;;;20.35;13.55;;;;;;;4.28;79.70996;94416.27;;;;
2024/01/07 00:43:18;;;;;;;20.35;13.55;;;;;;;4.28;79.70996;94416.27;;;;
2024/01/07 00:44:18;;;;;;;20.35;13.55;;;;;;;4.28;79.70996;94416.27;;;;
2024/01/07 00:45:19;;;;;;;20.35;13.55;;;;;;;4.28;79.70996;94416.27;;;;
2024/01/07 00:46:19;;;;;;;20.35;13.55;;;;;;;4.28;79.70996;94416.27;;;;
2024/01/07 00:47:20;;;;;;;20.35;13.55;;;;;;;4.28;79.70996;94416.27;;;;
2024/01/07 00:48:20;;;;;;;20.35;13.55;;;;;;;4.28;79.70996;94416.27;;;;
2024/01/07 00:49:21;;;;;;;20.35;13.55;;;;;;;4.28;79.70996;94416.27;;;;
2024/01/07 00:50:21;;;;;;;20.35;13.55;;;;;;;4.28;79.70996;94416.27;;;;
2024/01/07 00:51:22;;;;;;;19.75;12.7;;;;;;;4.3;79.73242;94407.81;;;;
2024/01/07 00:52:23;;;;;;;19.75;12.7;;;;;;;4.3;79.73242;94407.81;;;;
2024/01/07 00:53:23;;;;;;;19.75;12.7;;;;;;;4.3;79.73242;94407.81;;;;
2024/01/07 00:54:24;;;;;;;19.75;12.7;;;;;;;4.3;79.73242;94407.81;;;;
2024/01/07 00:55:24;;;;;;;19.75;12.7;;;;;;;4.3;79.73242;94407.81;;;;
2024/01/07 00:56:25;;;;;;;19.75;12.7;;;;;;;4.3;79.73242;94407.81;;;;
2024/01/07 00:57:26;;;;;;;19.75;12.7;;;;;;;4.3;79.73242;94407.81;;;;
2024/01/07 00:58:26;;;;;;;19.75;12.7;;;;;;;4.3;79.73242;94407.81;;;;
2024/01/07 00:59:27;;;;;;;19.75;12.7;;;;;;;4.3;79.73242;94407.81;;;;
2024/01/07 01:00:29;;;;;;;19.75;12.7;;;;;;;4.3;79.73242;94407.81;;;;
2024/01/07 01:01:30;;;;;;;19.75;12.7;;;;;;;4.3;79.73242;94407.81;;;;
2024/01/07 01:02:30;;;;;;;22.25;13.1;;;;;;;4.31;79.67285;94413.37;;;;
2024/01/07 01:03:31;;;;;;;22.25;13.1;;;;;;;4.31;79.67285;94413.37;;;;
2024/01/07 01:04:31;;;;;;;22.25;13.1;;;;;;;4.31;79.67285;94413.37;;;;
2024/01/07 01:05:32;;;;;;;22.25;13.1;;;;;;;4.31;79.67285;94413.37;;;;
2024/01/07 01:06:32;;;;;;;22.25;13.1;;;;;;;4.31;79.67285;94413.37;;;;
2024/01/07 01:07:33;;;;;;;22.25;13.1;;;;;;;4.31;79.67285;94413.37;;;;
2024/01/07 01:08:33;;;;;;;22.25;13.1;;;;;;;4.31;79.67285;94413.37;;;;
2024/01/07 01:09:34;;;;;;;22.25;13.1;;;;;;;4.31;79.67285;94413.37;;;;
2024/01/07 01:10:34;;;;;;;22.25;13.1;;;;;;;4.31;79.67285;94413.37;;;;
2024/01/07 01:11:35;;;;;;;22.25;13.1;;;;;;;4.31;79.67285;94413.37;;;;
2024/01/07 01:12:35;;;;;;;21.8;13.45;;;;;;;4.3;79.75391;94416.6;;;;
2024/01/07 01:13:36;;;;;;;21.8;13.45;;;;;;;4.3;79.75391;94416.6;;;;
2024/01/07 01:14:36;;;;;;;21.8;13.45;;;;;;;4.3;79.75391;94416.6;;;;
2024/01/07 01:15:37;;;;;;;21.8;13.45;;;;;;;4.3;79.75391;94416.6;;;;
2024/01/07 01:16:37;;;;;;;21.8;13.45;;;;;;;4.3;79.75391;94416.6;;;;
2024/01/07 01:17:38;;;;;;;21.8;13.45;;;;;;;4.3;79.75391;94416.6;;;;
2024/01/07 01:18:38;;;;;;;21.8;13.45;;;;;;;4.3;79.75391;94416.6;;;;
2024/01/07 01:19:38;;;;;;;21.8;13.45;;;;;;;4.3;79.75391;94416.6;;;;
2024/01/07 01:20:39;;;;;;;21.8;13.45;;;;;;;4.3;79.75391;94416.6;;;;
2024/01/07 01:21:39;;;;;;;21.8;13.45;;;;;;;4.3;79.75391;94416.6;;;;
2024/01/07 01:22:40;;;;;;;21.8;13.45;;;;;;;4.3;79.75391;94416.6;;;;
2024/01/07 01:23:40;;;;;;;21.75;13.5;;;;;;;4.29;79.70117;94427.95;;;;
2024/01/07 01:24:42;;;;;;;21.75;13.5;;;;;;;4.29;79.70117;94427.95;;;;
2024/01/07 01:25:42;;;;;;;21.75;13.5;;;;;;;4.29;79.70117;94427.95;;;;
2024/01/07 01:26:43;;;;;;;21.75;13.5;;;;;;;4.29;79.70117;94427.95;;;;
2024/01/07 01:27:44;;;;;;;21.75;13.5;;;;;;;4.29;79.70117;94427.95;;;;
2024/01/07 01:28:45;;;;;;;21.75;13.5;;;;;;;4.29;79.70117;94427.95;;;;
2024/01/07 01:29:45;;;;;;;21.75;13.5;;;;;;;4.29;79.70117;94427.95;;;;
2024/01/07 01:30:46;;;;;;;21.75;13.5;;;;;;;4.29;79.70117;94427.95;;;;
2024/01/07 01:31:46;;;;;;;21.75;13.5;;;;;;;4.29;79.70117;94427.95;;;;
2024/01/07 01:32:47;;;;;;;21.75;13.5;;;;;;;4.29;79.70117;94427.95;;;;
2024/01/07 01:33:47;;;;;;;20.75;12.7;;;;;;;4.28;79.75195;94429.35;;;;
2024/01/07 01:34:48;;;;;;;20.75;12.7;;;;;;;4.28;79.75195;94429.35;;;;
2024/01/07 01:35:49;;;;;;;20.75;12.7;;;;;;;4.28;79.75195;94429.35;;;;
2024/01/07 01:36:49;;;;;;;20.75;12.7;;;;;;;4.28;79.75195;94429.35;;;;
2024/01/07 01:37:50;;;;;;;20.75;12.7;;;;;;;4.28;79.75195;94429.35;;;;
2024/01/07 01:38:50;;;;;;;20.75;12.7;;;;;;;4.28;79.75195;94429.35;;;;
2024/01/07 01:39:51;;;;;;;20.75;12.7;;;;;;;4.28;79.75195;94429.35;;;;
2024/01/07 01:40:51;;;;;;;20.75;12.7;;;;;;;4.28;79.75195;94429.35;;;;
2024/01/07 01:41:53;;;;;;;20.75;12.7;;;;;;;4.28;79.75195;94429.35;;;;
2024/01/07 01:42:53;;;;;;;20.75;12.7;;;;;;;4.28;79.75195;94429.35;;;;
2024/01/07 01:43:54;;;;;;;20.75;12.7;;;;;;;4.28;79.75195;94429.35;;;;
2024/01/07 01:45:00;;;;;;;21.5;13.75;;;;;;;4.26;79.7998;94423.61;;;;
2024/01/07 01:46:01;;;;;;;21.5;13.75;;;;;;;4.26;79.7998;94423.61;;;;
2024/01/07 01:47:02;;;;;;;21.5;13.75;;;;;;;4.26;79.7998;94423.61;;;;
2024/01/07 01:48:03;;;;;;;21.5;13.75;;;;;;;4.26;79.7998;94423.61;;;;
2024/01/07 01:49:04;;;;;;;21.5;13.75;;;;;;;4.26;79.7998;94423.61;;;;
2024/01/07 01:50:06;;;;;;;21.5;13.75;;;;;;;4.26;79.7998;94423.61;;;;
2024/01/07 01:51:08;;;;;;;21.5;13.75;;;;;;;4.26;79.7998;94423.61;;;;
2024/01/07 01:52:09;;;;;;;21.5;13.75;;;;;;;4.26;79.7998;94423.61;;;;
2024/01/07 01:53:10;;;;;;;21.5;13.75;;;;;;;4.26;79.7998;94423.61;;;;
2024/01/07 01:54:11;;;;;;;21.5;13.75;;;;;;;4.26;79.7998;94423.61;;;;
2024/01/07 01:55:12;;;;;;;21.5;13.75;;;;;;;4.26;79.7998;94423.61;;;;
2024/01/07 01:56:13;;;;;;;21.1;12.55;;;;;;;4.29;79.66992;94420.59;;;;
2024/01/07 01:57:14;;;;;;;21.1;12.55;;;;;;;4.29;79.66992;94420.59;;;;
2024/01/07 01:58:19;;;;;;;21.1;12.55;;;;;;;4.29;79.66992;94420.59;;;;
2024/01/07 01:59:20;;;;;;;21.1;12.55;;;;;;;4.29;79.66992;94420.59;;;;
2024/01/07 02:00:22;;;;;;;21.1;12.55;;;;;;;4.29;79.66992;94420.59;;;;
2024/01/07 02:01:23;;;;;;;21.1;12.55;;;;;;;4.29;79.66992;94420.59;;;;
2024/01/07 02:02:23;;;;;;;21.1;12.55;;;;;;;4.29;79.66992;94420.59;;;;
2024/01/07 02:03:25;;;;;;;21.1;12.55;;;;;;;4.29;79.66992;94420.59;;;;
2024/01/07 02:04:26;;;;;;;21.1;12.55;;;;;;;4.29;79.66992;94420.59;;;;
2024/01/07 02:05:27;;;;;;;21.1;12.55;;;;;;;4.29;79.66992;94420.59;;;;
2024/01/07 02:06:28;;;;;;;20.15;12.25;;;;;;;4.26;79.79102;94413.96;;;;
2024/01/07 02:07:28;;;;;;;20.15;12.25;;;;;;;4.26;79.79102;94413.96;;;;
2024/01/07 02:08:30;;;;;;;20.15;12.25;;;;;;;4.26;79.79102;94413.96;;;;
2024/01/07 02:09:31;;;;;;;20.15;12.25;;;;;;;4.26;79.79102;94413.96;;;;
2024/01/07 02:10:34;;;;;;;20.15;12.25;;;;;;;4.26;79.79102;94413.96;;;;
2024/01/07 02:11:34;;;;;;;20.15;12.25;;;;;;;4.26;79.79102;94413.96;;;;
2024/01/07 02:12:35;;;;;;;20.15;12.25;;;;;;;4.26;79.79102;94413.96;;;;
2024/01/07 02:13:35;;;;;;;20.15;12.25;;;;;;;4.26;79.79102;94413.96;;;;
2024/01/07 02:14:36;;;;;;;20.15;12.25;;;;;;;4.26;79.79102;94413.96;;;;
2024/01/07 02:15:37;;;;;;;20.15;12.25;;;;;;;4.26;79.79102;94413.96;;;;
2024/01/07 02:16:37;;;;;;;20.15;12.25;;;;;;;4.26;79.79102;94413.96;;;;
2024/01/07 02:17:38;;;;;;;18.75;12.35;;;;;;;4.26;79.70703;94418.26;;;;
2024/01/07 02:18:38;;;;;;;18.75;12.35;;;;;;;4.26;79.70703;94418.26;;;;
2024/01/07 02:19:41;;;;;;;18.75;12.35;;;;;;;4.26;79.70703;94418.26;;;;
2024/01/07 02:20:41;;;;;;;18.75;12.35;;;;;;;4.26;79.70703;94418.26;;;;
2024/01/07 02:21:42;;;;;;;18.75;12.35;;;;;;;4.26;79.70703;94418.26;;;;
2024/01/07 02:22:42;;;;;;;18.75;12.35;;;;;;;4.26;79.70703;94418.26;;;;
2024/01/07 02:23:43;;;;;;;18.75;12.35;;;;;;;4.26;79.70703;94418.26;;;;
2024/01/07 02:24:43;;;;;;;18.75;12.35;;;;;;;4.26;79.70703;94418.26;;;;
2024/01/07 02:25:44;;;;;;;18.75;12.35;;;;;;;4.26;79.70703;94418.26;;;;
2024/01/07 02:26:44;;;;;;;18.75;12.35;;;;;;;4.26;79.70703;94418.26;;;;
2024/01/07 02:27:45;;;;;;;19.45;12.5;;;;;;;4.25;79.7666;94415.44;;;;
2024/01/07 02:28:45;;;;;;;19.45;12.5;;;;;;;4.25;79.7666;94415.44;;;;
2024/01/07 02:29:46;;;;;;;19.45;12.5;;;;;;;4.25;79.7666;94415.44;;;;
2024/01/07 02:30:46;;;;;;;19.45;12.5;;;;;;;4.25;79.7666;94415.44;;;;
2024/01/07 02:31:46;;;;;;;19.45;12.5;;;;;;;4.25;79.7666;94415.44;;;;
2024/01/07 02:32:47;;;;;;;19.45;12.5;;;;;;;4.25;79.7666;94415.44;;;;
2024/01/07 02:33:48;;;;;;;19.45;12.5;;;;;;;4.25;79.7666;94415.44;;;;
2024/01/07 02:34:48;;;;;;;19.45;12.5;;;;;;;4.25;79.7666;94415.44;;;;
2024/01/07 02:35:49;;;;;;;19.45;12.5;;;;;;;4.25;79.7666;94415.44;;;;
2024/01/07 02:36:50;;;;;;;19.45;12.5;;;;;;;4.25;79.7666;94415.44;;;;
2024/01/07 02:37:51;;;;;;;19.45;12.5;;;;;;;4.25;79.7666;94415.44;;;;
2024/01/07 02:38:51;;;;;;;19.35;12.2;;;;;;;4.22;79.88867;94412.72;;;;
2024/01/07 02:39:52;;;;;;;19.35;12.2;;;;;;;4.22;79.88867;94412.72;;;;
2024/01/07 02:40:52;;;;;;;19.35;12.2;;;;;;;4.22;79.88867;94412.72;;;;
2024/01/07 02:41:53;;;;;;;19.35;12.2;;;;;;;4.22;79.88867;94412.72;;;;
2024/01/07 02:42:53;;;;;;;19.35;12.2;;;;;;;4.22;79.88867;94412.72;;;;
2024/01/07 02:43:54;;;;;;;19.35;12.2;;;;;;;4.22;79.88867;94412.72;;;;
2024/01/07 02:44:54;;;;;;;19.35;12.2;;;;;;;4.22;79.88867;94412.72;;;;
2024/01/07 02:45:55;;;;;;;19.35;12.2;;;;;;;4.22;79.88867;94412.72;;;;
2024/01/07 02:46:55;;;;;;;19.35;12.2;;;;;;;4.22;79.88867;94412.72;;;;
2024/01/07 02:47:56;;;;;;;19.35;12.2;;;;;;;4.22;79.88867;94412.72;;;;
2024/01/07 02:48:56;;;;;;;17.75;11.3;;;;;;;4.23;79.80762;94416.04;;;;
2024/01/07 02:49:57;;;;;;;17.75;11.3;;;;;;;4.23;79.80762;94416.04;;;;
2024/01/07 02:50:57;;;;;;;17.75;11.3;;;;;;;4.23;79.80762;94416.04;;;;
2024/01/07 02:51:57;;;;;;;17.75;11.3;;;;;;;4.23;79.80762;94416.04;;;;
2024/01/07 02:52:58;;;;;;;17.75;11.3;;;;;;;4.23;79.80762;94416.04;;;;
2024/01/07 02:53:58;;;;;;;17.75;11.3;;;;;;;4.23;79.80762;94416.04;;;;
2024/01/07 02:55:01;;;;;;;17.75;11.3;;;;;;;4.23;79.80762;94416.04;;;;
2024/01/07 02:56:01;;;;;;;17.75;11.3;;;;;;;4.23;79.80762;94416.04;;;;
2024/01/07 02:57:02;;;;;;;17.75;11.3;;;;;;;4.23;79.80762;94416.04;;;;
2024/01/07 02:58:03;;;;;;;17.75;11.3;;;;;;;4.23;79.80762;94416.04;;;;
2024/01/07 02:59:04;;;;;;;17.75;11.3;;;;;;;4.23;79.80762;94416.04;;;;
2024/01/07 03:00:04;;;;;;;17.2;11;;;;;;;4.14;80.24512;94411.99;;;;
2024/01/07 03:01:06;;;;;;;17.2;11;;;;;;;4.14;80.24512;94411.99;;;;
2024/01/07 03:02:08;;;;;;;17.2;11;;;;;;;4.14;80.24512;94411.99;;;;
2024/01/07 03:03:09;;;;;;;17.2;11;;;;;;;4.14;80.24512;94411.99;;;;
2024/01/07 03:04:09;;;;;;;17.2;11;;;;;;;4.14;80.24512;94411.99;;;;
2024/01/07 03:05:11;;;;;;;17.2;11;;;;;;;4.14;80.24512;94411.99;;;;
2024/01/07 03:06:11;;;;;;;17.2;11;;;;;;;4.14;80.24512;94411.99;;;;
2024/01/07 03:07:12;;;;;;;17.2;11;;;;;;;4.14;80.24512;94411.99;;;;
2024/01/07 03:08:12;;;;;;;17.2;11;;;;;;;4.14;80.24512;94411.99;;;;
2024/01/07 03:09:13;;;;;;;17.2;11;;;;;;;4.14;80.24512;94411.99;;;;
2024/01/07 03:10:13;;;;;;;17.2;11;;;;;;;4.14;80.24512;94411.99;;;;
2024/01/07 03:11:13;;;;;;;16.5;11.15;;;;;;;4.11;80.38574;94406.74;;;;
2024/01/07 03:12:14;;;;;;;16.5;11.15;;;;;;;4.11;80.38574;94406.74;;;;
2024/01/07 03:13:14;;;;;;;16.5;11.15;;;;;;;4.11;80.38574;94406.74;;;;
2024/01/07 03:14:16;;;;;;;16.5;11.15;;;;;;;4.11;80.38574;94406.74;;;;
2024/01/07 03:15:17;;;;;;;16.5;11.15;;;;;;;4.11;80.38574;94406.74;;;;
2024/01/07 03:16:17;;;;;;;16.5;11.15;;;;;;;4.11;80.38574;94406.74;;;;
2024/01/07 03:17:21;;;;;;;16.5;11.15;;;;;;;4.11;80.38574;94406.74;;;;
2024/01/07 03:18:21;;;;;;;16.5;11.15;;;;;;;4.11;80.38574;94406.74;;;;
2024/01/07 03:19:22;;;;;;;16.5;11.15;;;;;;;4.11;80.38574;94406.74;;;;
2024/01/07 03:20:22;;;;;;;16.5;11.15;;;;;;;4.11;80.38574;94406.74;;;;
2024/01/07 03:21:23;;;;;;;16.9;11.45;;;;;;;4.16;80.10059;94407.37;;;;
2024/01/07 03:22:23;;;;;;;16.9;11.45;;;;;;;4.16;80.10059;94407.37;;;;
2024/01/07 03:23:24;;;;;;;16.9;11.45;;;;;;;4.16;80.10059;94407.37;;;;
2024/01/07 03:24:24;;;;;;;16.9;11.45;;;;;;;4.16;80.10059;94407.37;;;;
2024/01/07 03:25:25;;;;;;;16.9;11.45;;;;;;;4.16;80.10059;94407.37;;;;
2024/01/07 03:26:25;;;;;;;16.9;11.45;;;;;;;4.16;80.10059;94407.37;;;;
2024/01/07 03:27:29;;;;;;;16.9;11.45;;;;;;;4.16;80.10059;94407.37;;;;
2024/01/07 03:28:30;;;;;;;16.9;11.45;;;;;;;4.16;80.10059;94407.37;;;;
2024/01/07 03:29:30;;;;;;;16.9;11.45;;;;;;;4.16;80.10059;94407.37;;;;
2024/01/07 03:30:31;;;;;;;16.9;11.45;;;;;;;4.16;80.10059;94407.37;;;;
2024/01/07 03:31:31;;;;;;;16.9;11.45;;;;;;;4.16;80.10059;94407.37;;;;
2024/01/07 03:32:32;;;;;;;16.35;10.65;;;;;;;4.1;80.38379;94406.94;;;;
2024/01/07 03:33:32;;;;;;;16.35;10.65;;;;;;;4.1;80.38379;94406.94;;;;
2024/01/07 03:34:33;;;;;;;16.35;10.65;;;;;;;4.1;80.38379;94406.94;;;;
2024/01/07 03:35:33;;;;;;;16.35;10.65;;;;;;;4.1;80.38379;94406.94;;;;
2024/01/07 03:36:34;;;;;;;16.35;10.65;;;;;;;4.1;80.38379;94406.94;;;;
2024/01/07 03:37:34;;;;;;;16.35;10.65;;;;;;;4.1;80.38379;94406.94;;;;
2024/01/07 03:38:35;;;;;;;16.35;10.65;;;;;;;4.1;80.38379;94406.94;;;;
2024/01/07 03:39:36;;;;;;;16.35;10.65;;;;;;;4.1;80.38379;94406.94;;;;
2024/01/07 03:40:36;;;;;;;16.35;10.65;;;;;;;4.1;80.38379;94406.94;;;;
2024/01/07 03:41:37;;;;;;;16.35;10.65;;;;;;;4.1;80.38379;94406.94;;;;
2024/01/07 03:42:38;;;;;;;17;11.25;;;;;;;4.25;79.72559;94415.35;;;;
2024/01/07 03:43:38;;;;;;;17;11.25;;;;;;;4.25;79.72559;94415.35;;;;
2024/01/07 03:44:39;;;;;;;17;11.25;;;;;;;4.25;79.72559;94415.35;;;;
2024/01/07 03:45:39;;;;;;;17;11.25;;;;;;;4.25;79.72559;94415.35;;;;
2024/01/07 03:46:40;;;;;;;17;11.25;;;;;;;4.25;79.72559;94415.35;;;;
2024/01/07 03:47:40;;;;;;;17;11.25;;;;;;;4.25;79.72559;94415.35;;;;
2024/01/07 03:48:41;;;;;;;17;11.25;;;;;;;4.25;79.72559;94415.35;;;;
2024/01/07 03:49:42;;;;;;;17;11.25;;;;;;;4.25;79.72559;94415.35;;;;
2024/01/07 03:50:42;;;;;;;17;11.25;;;;;;;4.25;79.72559;94415.35;;;;
2024/01/07 03:51:43;;;;;;;17;11.25;;;;;;;4.25;79.72559;94415.35;;;;
2024/01/07 03:52:43;;;;;;;17;11.25;;;;;;;4.25;79.72559;94415.35;;;;
2024/01/07 03:53:44;;;;;;;16.35;11.35;;;;;;;4.26;79.73633;94409.63;;;;
2024/01/07 03:54:44;;;;;;;16.35;11.35;;;;;;;4.26;79.73633;94409.63;;;;
2024/01/07 03:55:45;;;;;;;16.35;11.35;;;;;;;4.26;79.73633;94409.63;;;;
2024/01/07 03:56:46;;;;;;;16.35;11.35;;;;;;;4.26;79.73633;94409.63;;;;
2024/01/07 03:57:46;;;;;;;16.35;11.35;;;;;;;4.26;79.73633;94409.63;;;;
2024/01/07 03:58:46;;;;;;;16.35;11.35;;;;;;;4.26;79.73633;94409.63;;;;
2024/01/07 03:59:47;;;;;;;16.35;11.35;;;;;;;4.26;79.73633;94409.63;;;;
2024/01/07 04:00:48;;;;;;;16.35;11.35;;;;;;;4.26;79.73633;94409.63;;;;
2024/01/07 04:01:48;;;;;;;16.35;11.35;;;;;;;4.26;79.73633;94409.63;;;;
2024/01/07 04:02:49;;;;;;;16.35;11.35;;;;;;;4.26;79.73633;94409.63;;;;
2024/01/07 04:03:49;;;;;;;16.35;11.35;;;;;;;4.26;79.73633;94409.63;;;;
2024/01/07 04:04:49;;;;;;;16.25;11.3;;;;;;;4.1;80.51172;94418.7;;;;
2024/01/07 04:05:50;;;;;;;16.25;11.3;;;;;;;4.1;80.51172;94418.7;;;;
2024/01/07 04:06:51;;;;;;;16.25;11.3;;;;;;;4.1;80.51172;94418.7;;;;
2024/01/07 04:07:51;;;;;;;16.25;11.3;;;;;;;4.1;80.51172;94418.7;;;;
2024/01/07 04:08:52;;;;;;;16.25;11.3;;;;;;;4.1;80.51172;94418.7;;;;
2024/01/07 04:09:52;;;;;;;16.25;11.3;;;;;;;4.1;80.51172;94418.7;;;;
2024/01/07 04:10:52;;;;;;;16.25;11.3;;;;;;;4.1;80.51172;94418.7;;;;
2024/01/07 04:11:53;;;;;;;16.25;11.3;;;;;;;4.1;80.51172;94418.7;;;;
2024/01/07 04:12:53;;;;;;;16.25;11.3;;;;;;;4.1;80.51172;94418.7;;;;
2024/01/07 04:13:54;;;;;;;16.25;11.3;;;;;;;4.1;80.51172;94418.7;;;;
2024/01/07 04:14:54;;;;;;;15.15;11;;;;;;;4.18;80.01758;94423.77;;;;
2024/01/07 04:15:55;;;;;;;15.15;11;;;;;;;4.18;80.01758;94423.77;;;;
2024/01/07 04:16:55;;;;;;;15.15;11;;;;;;;4.18;80.01758;94423.77;;;;
2024/01/07 04:17:56;;;;;;;15.15;11;;;;;;;4.18;80.01758;94423.77;;;;
2024/01/07 04:18:56;;;;;;;15.15;11;;;;;;;4.18;80.01758;94423.77;;;;
2024/01/07 04:19:57;;;;;;;15.15;11;;;;;;;4.18;80.01758;94423.77;;;;
2024/01/07 04:20:57;;;;;;;15.15;11;;;;;;;4.18;80.01758;94423.77;;;;
2024/01/07 04:21:58;;;;;;;15.15;11;;;;;;;4.18;80.01758;94423.77;;;;
2024/01/07 04:22:58;;;;;;;15.15;11;;;;;;;4.18;80.01758;94423.77;;;;
2024/01/07 04:23:58;;;;;;;15.15;11;;;;;;;4.18;80.01758;94423.77;;;;
2024/01/07 04:24:59;;;;;;;15.15;11;;;;;;;4.18;80.01758;94423.77;;;;
2024/01/07 04:26:00;;;;;;;15.15;11;;;;;;;4.18;80.01758;94423.77;;;;
2024/01/07 04:27:01;;;;;;;15.15;11;;;;;;;4.18;80.01758;94423.77;;;;
2024/01/07 04:28:01;;;;;;;15.15;11;;;;;;;4.18;80.01758;94423.77;;;;
2024/01/07 04:29:02;;;;;;;15.15;11;;;;;;;4.18;80.01758;94423.77;;;;
2024/01/07 04:30:02;;;;;;;15.15;11;;;;;;;4.18;80.01758;94423.77;;;;
2024/01/07 04:31:04;;;;;;;15.15;11;;;;;;;4.18;80.01758;94423.77;;;;
2024/01/07 04:32:05;;;;;;;15.15;11;;;;;;;4.18;80.01758;94423.77;;;;
2024/01/07 04:33:05;;;;;;;15.15;11;;;;;;;4.18;80.01758;94423.77;;;;
2024/01/07 04:34:07;;;;;;;15.15;11;;;;;;;4.18;80.01758;94423.77;;;;
2024/01/07 04:35:08;;;;;;;15.15;11;;;;;;;4.18;80.01758;94423.77;;;;
2024/01/07 04:36:08;;;;;;;13.8;9.849999;;;;;;;4.16;79.66602;94433.53;;;;
2024/01/07 04:37:10;;;;;;;13.8;9.849999;;;;;;;4.16;79.66602;94433.53;;;;
2024/01/07 04:38:10;;;;;;;13.8;9.849999;;;;;;;4.16;79.66602;94433.53;;;;
2024/01/07 04:39:11;;;;;;;13.8;9.849999;;;;;;;4.16;79.66602;94433.53;;;;
2024/01/07 04:40:11;;;;;;;13.8;9.849999;;;;;;;4.16;79.66602;94433.53;;;;
2024/01/07 04:41:12;;;;;;;13.8;9.849999;;;;;;;4.16;79.66602;94433.53;;;;
2024/01/07 04:42:13;;;;;;;13.8;9.849999;;;;;;;4.16;79.66602;94433.53;;;;
2024/01/07 04:43:13;;;;;;;13.8;9.849999;;;;;;;4.16;79.66602;94433.53;;;;
2024/01/07 04:44:14;;;;;;;13.8;9.849999;;;;;;;4.16;79.66602;94433.53;;;;
2024/01/07 04:45:14;;;;;;;13.8;9.849999;;;;;;;4.16;79.66602;94433.53;;;;
2024/01/07 04:46:15;;;;;;;13.8;9.849999;;;;;;;4.16;79.66602;94433.53;;;;
2024/01/07 04:47:15;;;;;;;14.9;10.25;;;;;;;4.08;80.09473;94444.15;;;;
2024/01/07 04:48:25;;;;;;;14.9;10.25;;;;;;;4.08;80.09473;94444.15;;;;
2024/01/07 04:49:26;;;;;;;14.9;10.25;;;;;;;4.08;80.09473;94444.15;;;;
2024/01/07 04:50:26;;;;;;;14.9;10.25;;;;;;;4.08;80.09473;94444.15;;;;
2024/01/07 04:51:27;;;;;;;14.9;10.25;;;;;;;4.08;80.09473;94444.15;;;;
2024/01/07 04:52:27;;;;;;;14.9;10.25;;;;;;;4.08;80.09473;94444.15;;;;
2024/01/07 04:53:28;;;;;;;14.9;10.25;;;;;;;4.08;80.09473;94444.15;;;;
2024/01/07 04:54:28;;;;;;;14.9;10.25;;;;;;;4.08;80.09473;94444.15;;;;
2024/01/07 04:55:29;;;;;;;14.9;10.25;;;;;;;4.08;80.09473;94444.15;;;;
2024/01/07 04:56:30;;;;;;;14.9;10.25;;;;;;;4.08;80.09473;94444.15;;;;
2024/01/07 04:57:30;;;;;;;14.7;10.25;;;;;;;4.18;79.7207;94456.87;;;;
2024/01/07 04:58:31;;;;;;;14.7;10.25;;;;;;;4.18;79.7207;94456.87;;;;
2024/01/07 04:59:31;;;;;;;14.7;10.25;;;;;;;4.18;79.7207;94456.87;;;;
2024/01/07 05:00:32;;;;;;;14.7;10.25;;;;;;;4.18;79.7207;94456.87;;;;
2024/01/07 05:01:32;;;;;;;14.7;10.25;;;;;;;4.18;79.7207;94456.87;;;;
2024/01/07 05:02:33;;;;;;;14.7;10.25;;;;;;;4.18;79.7207;94456.87;;;;
2024/01/07 05:03:33;;;;;;;14.7;10.25;;;;;;;4.18;79.7207;94456.87;;;;
2024/01/07 05:04:34;;;;;;;14.7;10.25;;;;;;;4.18;79.7207;94456.87;;;;
2024/01/07 05:05:36;;;;;;;14.7;10.25;;;;;;;4.18;79.7207;94456.87;;;;
2024/01/07 05:06:37;;;;;;;14.7;10.25;;;;;;;4.18;79.7207;94456.87;;;;
2024/01/07 05:07:37;;;;;;;14.7;10.25;;;;;;;4.18;79.7207;94456.87;;;;
2024/01/07 05:08:38;;;;;;;15.7;10.95;;;;;;;4.21;79.58008;94467.35;;;;
2024/01/07 05:09:40;;;;;;;15.7;10.95;;;;;;;4.21;79.58008;94467.35;;;;
2024/01/07 05:10:40;;;;;;;15.7;10.95;;;;;;;4.21;79.58008;94467.35;;;;
2024/01/07 05:11:41;;;;;;;15.7;10.95;;;;;;;4.21;79.58008;94467.35;;;;
2024/01/07 05:12:41;;;;;;;15.7;10.95;;;;;;;4.21;79.58008;94467.35;;;;
2024/01/07 05:13:42;;;;;;;15.7;10.95;;;;;;;4.21;79.58008;94467.35;;;;
2024/01/07 05:14:42;;;;;;;15.7;10.95;;;;;;;4.21;79.58008;94467.35;;;;
2024/01/07 05:15:43;;;;;;;15.7;10.95;;;;;;;4.21;79.58008;94467.35;;;;
2024/01/07 05:16:43;;;;;;;15.7;10.95;;;;;;;4.21;79.58008;94467.35;;;;
2024/01/07 05:17:44;;;;;;;15.7;10.95;;;;;;;4.21;79.58008;94467.35;;;;
2024/01/07 05:18:48;;;;;;;15.7;10.95;;;;;;;4.21;79.58008;94467.35;;;;
2024/01/07 05:19:48;;;;;;;15.1;11;;;;;;;4.21;79.6543;94468.25;;;;
2024/01/07 05:20:49;;;;;;;15.1;11;;;;;;;4.21;79.6543;94468.25;;;;
2024/01/07 05:21:50;;;;;;;15.1;11;;;;;;;4.21;79.6543;94468.25;;;;
2024/01/07 05:22:50;;;;;;;15.1;11;;;;;;;4.21;79.6543;94468.25;;;;
2024/01/07 05:23:51;;;;;;;15.1;11;;;;;;;4.21;79.6543;94468.25;;;;
2024/01/07 05:24:51;;;;;;;15.1;11;;;;;;;4.21;79.6543;94468.25;;;;
2024/01/07 05:25:52;;;;;;;15.1;11;;;;;;;4.21;79.6543;94468.25;;;;
2024/01/07 05:26:52;;;;;;;15.1;11;;;;;;;4.21;79.6543;94468.25;;;;
2024/01/07 05:27:53;;;;;;;15.1;11;;;;;;;4.21;79.6543;94468.25;;;;
2024/01/07 05:28:53;;;;;;;15.1;11;;;;;;;4.21;79.6543;94468.25;;;;
2024/01/07 05:29:55;;;;;;;17.15;11.85;;;;;;;4.2;79.66309;94467.42;;;;
2024/01/07 05:30:55;;;;;;;17.15;11.85;;;;;;;4.2;79.66309;94467.42;;;;
2024/01/07 05:31:56;;;;;;;17.15;11.85;;;;;;;4.2;79.66309;94467.42;;;;
2024/01/07 05:32:56;;;;;;;17.15;11.85;;;;;;;4.2;79.66309;94467.42;;;;
2024/01/07 05:33:57;;;;;;;17.15;11.85;;;;;;;4.2;79.66309;94467.42;;;;
2024/01/07 05:34:57;;;;;;;17.15;11.85;;;;;;;4.2;79.66309;94467.42;;;;
2024/01/07 05:35:58;;;;;;;17.15;11.85;;;;;;;4.2;79.66309;94467.42;;;;
2024/01/07 05:36:58;;;;;;;17.15;11.85;;;;;;;4.2;79.66309;94467.42;;;;
2024/01/07 05:37:59;;;;;;;17.15;11.85;;;;;;;4.2;79.66309;94467.42;;;;
2024/01/07 05:38:59;;;;;;;17.15;11.85;;;;;;;4.2;79.66309;94467.42;;;;
2024/01/07 05:40:00;;;;;;;17.15;11.85;;;;;;;4.2;79.66309;94467.42;;;;
2024/01/07 05:41:00;;;;;;;17.2;11.75;;;;;;;4.07;80.12695;94472.58;;;;
2024/01/07 05:42:01;;;;;;;17.2;11.75;;;;;;;4.07;80.12695;94472.58;;;;
2024/01/07 05:43:01;;;;;;;17.2;11.75;;;;;;;4.07;80.12695;94472.58;;;;
2024/01/07 05:44:02;;;;;;;17.2;11.75;;;;;;;4.07;80.12695;94472.58;;;;
2024/01/07 05:45:02;;;;;;;17.2;11.75;;;;;;;4.07;80.12695;94472.58;;;;
2024/01/07 05:46:03;;;;;;;17.2;11.75;;;;;;;4.07;80.12695;94472.58;;;;